createdAt,value
2019-03-30T00:00:34.177Z,6.90
2019-03-30T00:03:02.830Z,7.00
2019-03-30T00:05:31.401Z,7.00
2019-03-30T00:08:00.297Z,7.00
2019-03-30T00:10:28.909Z,6.90
2019-03-30T00:12:57.619Z,7.00
2019-03-30T00:15:26.235Z,7.00
2019-03-30T00:17:54.851Z,7.00
2019-03-30T00:20:23.525Z,7.00
2019-03-30T00:22:52.187Z,7.00
2019-03-30T00:25:20.791Z,6.90
2019-03-30T00:27:49.349Z,7.00
2019-03-30T00:30:19.293Z,7.00
2019-03-30T00:32:48.170Z,7.00
2019-03-30T00:35:16.872Z,6.90
2019-03-30T00:37:45.548Z,6.90
2019-03-30T00:40:14.186Z,6.80
2019-03-30T00:42:42.786Z,6.90
2019-03-30T00:45:11.622Z,6.80
2019-03-30T00:47:40.242Z,6.90
2019-03-30T00:50:09.078Z,6.80
2019-03-30T00:52:37.714Z,6.80
2019-03-30T00:55:07.267Z,6.70
2019-03-30T00:57:35.946Z,6.80
2019-03-30T01:00:06.912Z,6.70
2019-03-30T01:02:35.574Z,6.70
2019-03-30T01:05:05.958Z,6.70
2019-03-30T01:07:34.627Z,6.60
2019-03-30T01:10:04.474Z,6.60
2019-03-30T01:12:33.103Z,6.60
2019-03-30T01:15:01.831Z,6.60
2019-03-30T01:17:30.437Z,6.60
2019-03-30T01:20:03.055Z,6.50
2019-03-30T01:22:29.385Z,6.50
2019-03-30T01:24:58.119Z,6.60
2019-03-30T01:27:26.697Z,6.50
2019-03-30T01:29:55.306Z,6.40
2019-03-30T01:32:23.919Z,6.40
2019-03-30T01:34:52.522Z,6.50
2019-03-30T01:37:21.225Z,6.40
2019-03-30T01:39:49.870Z,6.40
2019-03-30T01:42:18.433Z,6.40
2019-03-30T01:44:47.182Z,6.40
2019-03-30T01:47:15.758Z,6.40
2019-03-30T01:49:44.473Z,6.40
2019-03-30T01:52:13.156Z,6.40
2019-03-30T01:54:41.746Z,6.40
2019-03-30T01:57:10.462Z,6.40
2019-03-30T01:59:39.073Z,6.40
2019-03-30T02:02:07.677Z,6.40
2019-03-30T02:04:36.249Z,6.40
2019-03-30T02:07:04.891Z,6.40
2019-03-30T02:09:33.599Z,6.40
2019-03-30T02:12:02.398Z,6.40
2019-03-30T02:14:31.065Z,6.40
2019-03-30T02:16:59.792Z,6.40
2019-03-30T02:19:28.510Z,6.40
2019-03-30T02:21:57.149Z,6.40
2019-03-30T02:24:25.737Z,6.40
2019-03-30T02:26:54.355Z,6.40
2019-03-30T02:29:22.974Z,6.40
2019-03-30T02:31:51.539Z,6.30
2019-03-30T02:34:20.165Z,6.30
2019-03-30T02:36:48.806Z,6.30
2019-03-30T02:39:17.497Z,6.30
2019-03-30T02:41:46.173Z,6.30
2019-03-30T02:44:14.898Z,6.30
2019-03-30T02:46:43.547Z,6.30
2019-03-30T02:49:12.133Z,6.30
2019-03-30T02:51:40.746Z,6.30
2019-03-30T02:54:09.396Z,6.30
2019-03-30T02:56:38.117Z,6.20
2019-03-30T02:59:06.867Z,6.20
2019-03-30T03:01:35.461Z,6.20
2019-03-30T03:04:04.199Z,6.10
2019-03-30T03:06:32.923Z,6.10
2019-03-30T03:09:01.529Z,6.10
2019-03-30T03:11:30.147Z,6.10
2019-03-30T03:13:58.731Z,6.10
2019-03-30T03:16:27.692Z,6.10
2019-03-30T03:18:56.294Z,6.10
2019-03-30T03:21:24.965Z,6.10
2019-03-30T03:23:53.570Z,6.00
2019-03-30T03:26:22.141Z,6.10
2019-03-30T03:28:50.742Z,6.10
2019-03-30T03:31:19.482Z,6.10
2019-03-30T03:33:48.077Z,6.10
2019-03-30T03:36:16.679Z,6.10
2019-03-30T03:38:45.281Z,6.20
2019-03-30T03:41:13.884Z,6.10
2019-03-30T03:43:42.559Z,6.10
2019-03-30T03:46:11.316Z,6.10
2019-03-30T03:48:40.133Z,6.00
2019-03-30T03:51:24.874Z,6.00
2019-03-30T03:53:39.427Z,6.00
2019-03-30T03:56:09.429Z,5.90
2019-03-30T03:58:39.974Z,5.90
2019-03-30T04:01:08.848Z,5.90
2019-03-30T04:03:39.149Z,6.00
2019-03-30T04:06:08.339Z,5.90
2019-03-30T04:08:37.375Z,5.90
2019-03-30T04:11:07.116Z,5.80
2019-03-30T04:13:37.104Z,5.80
2019-03-30T04:16:05.694Z,5.80
2019-03-30T04:18:34.359Z,5.80
2019-03-30T04:21:02.973Z,5.80
2019-03-30T04:23:31.584Z,5.80
2019-03-30T04:26:00.264Z,5.80
2019-03-30T04:28:28.881Z,5.80
2019-03-30T04:30:57.579Z,5.80
2019-03-30T04:33:26.183Z,5.80
2019-03-30T04:35:54.779Z,5.80
2019-03-30T04:38:23.380Z,5.80
2019-03-30T04:40:52.023Z,5.80
2019-03-30T04:43:20.645Z,5.80
2019-03-30T04:45:49.250Z,5.90
2019-03-30T04:48:17.834Z,5.80
2019-03-30T04:50:46.502Z,5.90
2019-03-30T04:53:15.086Z,5.90
2019-03-30T04:55:43.681Z,5.90
2019-03-30T04:58:12.422Z,5.90
2019-03-30T05:00:41.009Z,6.00
2019-03-30T05:03:09.843Z,6.00
2019-03-30T05:05:38.466Z,6.00
2019-03-30T05:08:07.066Z,6.00
2019-03-30T05:10:35.732Z,6.10
2019-03-30T05:13:04.378Z,6.10
2019-03-30T05:15:33.110Z,6.10
2019-03-30T05:18:01.715Z,6.10
2019-03-30T05:20:30.305Z,6.10
2019-03-30T05:22:58.999Z,6.20
2019-03-30T05:25:27.609Z,6.30
2019-03-30T05:27:56.227Z,6.30
2019-03-30T05:30:24.794Z,6.30
2019-03-30T05:33:04.849Z,6.40
2019-03-30T05:35:23.826Z,6.40
2019-03-30T05:37:52.390Z,6.50
2019-03-30T05:40:21.042Z,6.50
2019-03-30T05:42:49.613Z,6.60
2019-03-30T05:45:18.375Z,6.60
2019-03-30T05:47:46.946Z,6.70
2019-03-30T05:50:15.616Z,6.70
2019-03-30T05:52:44.218Z,6.80
2019-03-30T05:55:13.011Z,6.80
2019-03-30T05:57:41.613Z,6.90
2019-03-30T06:00:12.817Z,6.90
2019-03-30T06:02:41.439Z,7.00
2019-03-30T06:05:10.216Z,7.00
2019-03-30T06:07:38.881Z,7.10
2019-03-30T06:10:07.881Z,7.10
2019-03-30T06:12:36.467Z,7.20
2019-03-30T06:15:07.576Z,7.20
2019-03-30T06:17:36.248Z,7.20
2019-03-30T06:20:06.585Z,7.30
2019-03-30T06:22:40.640Z,7.40
2019-03-30T06:25:05.830Z,7.40
2019-03-30T06:27:34.497Z,7.50
2019-03-30T06:30:17.299Z,7.50
2019-03-30T06:32:46.189Z,7.60
2019-03-30T06:35:14.925Z,7.70
2019-03-30T06:37:43.509Z,7.80
2019-03-30T06:40:12.374Z,7.80
2019-03-30T06:42:41.077Z,7.90
2019-03-30T06:45:09.947Z,8.00
2019-03-30T06:47:38.542Z,8.10
2019-03-30T06:50:08.049Z,8.10
2019-03-30T06:52:36.646Z,8.10
2019-03-30T06:55:06.631Z,8.20
2019-03-30T06:57:35.313Z,8.30
2019-03-30T07:00:04.935Z,8.30
2019-03-30T07:02:33.653Z,8.40
2019-03-30T07:05:02.606Z,8.30
2019-03-30T07:07:32.595Z,8.50
2019-03-30T07:10:04.070Z,8.50
2019-03-30T07:12:35.782Z,8.40
2019-03-30T07:15:06.146Z,8.60
2019-03-30T07:17:37.786Z,8.50
2019-03-30T07:20:09.635Z,8.60
2019-03-30T07:22:38.255Z,9.00
2019-03-30T07:25:06.889Z,9.50
2019-03-30T07:27:35.497Z,10.50
2019-03-30T07:30:06.740Z,11.60
2019-03-30T07:32:35.258Z,10.50
2019-03-30T07:35:04.710Z,10.60
2019-03-30T07:37:33.389Z,10.60
2019-03-30T07:40:01.949Z,12.10
2019-03-30T07:42:30.573Z,12.10
2019-03-30T07:44:59.143Z,12.20
2019-03-30T07:47:27.736Z,11.20
2019-03-30T07:49:56.307Z,11.80
2019-03-30T07:52:24.913Z,12.40
2019-03-30T07:54:53.591Z,12.80
2019-03-30T07:57:22.264Z,13.00
2019-03-30T07:59:50.823Z,14.90
2019-03-30T08:02:19.434Z,15.10
2019-03-30T08:04:48.009Z,14.40
2019-03-30T08:07:16.916Z,12.70
2019-03-30T08:09:45.576Z,12.40
2019-03-30T08:12:14.298Z,12.60
2019-03-30T08:14:45.155Z,13.10
2019-03-30T08:17:13.142Z,13.80
2019-03-30T08:19:41.793Z,13.30
2019-03-30T08:22:10.350Z,13.50
2019-03-30T08:24:39.036Z,13.40
2019-03-30T08:27:09.260Z,14.80
2019-03-30T08:29:37.856Z,14.50
2019-03-30T08:32:06.765Z,13.80
2019-03-30T08:34:35.419Z,13.80
2019-03-30T08:37:04.102Z,13.60
2019-03-30T08:39:32.696Z,14.40
2019-03-30T08:42:01.297Z,14.40
2019-03-30T08:44:29.899Z,15.60
2019-03-30T08:46:58.494Z,15.10
2019-03-30T08:49:27.129Z,16.30
2019-03-30T08:51:55.774Z,14.80
2019-03-30T08:54:24.633Z,13.60
2019-03-30T08:56:53.190Z,14.50
2019-03-30T08:59:21.863Z,16.20
2019-03-30T09:01:50.457Z,15.60
2019-03-30T09:04:19.141Z,17.30
2019-03-30T09:06:47.707Z,16.80
2019-03-30T09:09:16.313Z,16.60
2019-03-30T09:11:45.026Z,15.20
2019-03-30T09:14:13.650Z,15.90
2019-03-30T09:16:42.480Z,15.00
2019-03-30T09:19:11.068Z,16.10
2019-03-30T09:21:39.754Z,17.70
2019-03-30T09:24:10.130Z,16.80
2019-03-30T09:26:38.709Z,17.30
2019-03-30T09:29:07.305Z,16.20
2019-03-30T09:31:36.126Z,15.90
2019-03-30T09:34:05.750Z,16.80
2019-03-30T09:36:34.474Z,15.60
2019-03-30T09:39:04.178Z,16.70
2019-03-30T09:41:32.951Z,17.20
2019-03-30T09:44:01.573Z,15.90
2019-03-30T09:46:30.370Z,15.80
2019-03-30T09:48:59.139Z,17.20
2019-03-30T09:51:27.887Z,17.10
2019-03-30T09:53:56.589Z,16.40
2019-03-30T09:56:25.189Z,16.50
2019-03-30T09:58:53.845Z,16.50
2019-03-30T10:01:22.404Z,17.60
2019-03-30T10:03:51.229Z,17.60
2019-03-30T10:06:19.798Z,16.60
2019-03-30T10:08:48.401Z,16.60
2019-03-30T10:11:17.003Z,16.50
2019-03-30T10:13:45.741Z,18.10
2019-03-30T10:16:14.423Z,16.70
2019-03-30T10:18:42.991Z,17.30
2019-03-30T10:21:11.640Z,16.80
2019-03-30T10:23:40.209Z,17.40
2019-03-30T10:26:08.909Z,17.30
2019-03-30T10:28:37.540Z,16.10
2019-03-30T10:31:06.264Z,16.50
2019-03-30T10:33:34.766Z,15.30
2019-03-30T10:36:03.450Z,17.00
2019-03-30T10:38:32.092Z,17.20
2019-03-30T10:41:00.715Z,17.50
2019-03-30T10:43:29.306Z,18.40
2019-03-30T10:45:57.877Z,17.70
2019-03-30T10:48:26.482Z,16.90
2019-03-30T10:50:55.106Z,17.60
2019-03-30T10:53:23.720Z,16.30
2019-03-30T10:55:52.355Z,17.60
2019-03-30T10:58:20.960Z,19.00
2019-03-30T11:00:49.571Z,18.60
2019-03-30T11:03:18.205Z,16.60
2019-03-30T11:05:46.970Z,17.30
2019-03-30T11:08:15.629Z,17.60
2019-03-30T11:10:44.527Z,16.80
2019-03-30T11:13:13.289Z,16.60
2019-03-30T11:15:41.886Z,16.00
2019-03-30T11:18:10.551Z,16.50
2019-03-30T11:20:39.165Z,17.50
2019-03-30T11:23:07.767Z,15.60
2019-03-30T11:25:36.510Z,16.40
2019-03-30T11:28:05.228Z,15.90
2019-03-30T11:30:33.808Z,16.40
2019-03-30T11:33:02.448Z,15.40
2019-03-30T11:35:31.153Z,15.90
2019-03-30T11:37:59.831Z,16.50
2019-03-30T11:40:28.578Z,16.70
2019-03-30T11:42:57.243Z,15.70
2019-03-30T11:45:25.979Z,15.50
2019-03-30T11:47:54.558Z,15.20
2019-03-30T11:50:23.165Z,15.30
2019-03-30T11:52:51.790Z,15.70
2019-03-30T11:55:21.956Z,15.60
2019-03-30T11:57:50.714Z,15.80
2019-03-30T12:00:19.613Z,16.00
2019-03-30T12:02:48.252Z,16.70
2019-03-30T12:05:16.913Z,15.40
2019-03-30T12:07:45.661Z,15.10
2019-03-30T12:10:14.608Z,15.40
2019-03-30T12:12:43.217Z,15.00
2019-03-30T12:15:12.998Z,14.90
2019-03-30T12:17:41.632Z,15.00
2019-03-30T12:20:10.589Z,14.70
2019-03-30T12:22:39.360Z,14.80
2019-03-30T12:25:08.391Z,14.60
2019-03-30T12:27:37.007Z,14.60
2019-03-30T12:30:10.557Z,14.80
2019-03-30T12:32:39.273Z,14.80
2019-03-30T12:35:08.114Z,14.40
2019-03-30T12:37:37.317Z,14.50
2019-03-30T12:40:07.102Z,14.30
2019-03-30T12:42:35.779Z,14.60
2019-03-30T12:45:06.703Z,14.20
2019-03-30T12:47:35.314Z,14.20
2019-03-30T12:50:05.804Z,14.30
2019-03-30T12:52:34.373Z,14.50
2019-03-30T12:55:03.692Z,14.30
2019-03-30T12:57:32.351Z,14.20
2019-03-30T13:00:01.027Z,14.50
2019-03-30T13:02:29.966Z,14.40
2019-03-30T13:04:58.542Z,14.20
2019-03-30T13:07:27.170Z,14.10
2019-03-30T13:09:55.825Z,14.30
2019-03-30T13:12:24.477Z,14.30
2019-03-30T13:14:53.156Z,14.50
2019-03-30T13:17:21.798Z,14.80
2019-03-30T13:19:50.456Z,14.90
2019-03-30T13:22:19.065Z,14.10
2019-03-30T13:24:47.790Z,14.40
2019-03-30T13:27:16.478Z,14.20
2019-03-30T13:29:45.126Z,14.20
2019-03-30T13:32:13.944Z,14.60
2019-03-30T13:34:42.759Z,14.50
2019-03-30T13:37:19.160Z,14.20
2019-03-30T13:39:47.802Z,14.20
2019-03-30T13:42:16.425Z,14.20
2019-03-30T13:44:45.254Z,14.30
2019-03-30T13:47:13.893Z,14.50
2019-03-30T13:49:42.567Z,14.70
2019-03-30T13:52:11.173Z,14.60
2019-03-30T13:54:39.802Z,14.80
2019-03-30T13:57:08.460Z,14.70
2019-03-30T13:59:37.005Z,14.40
2019-03-30T14:02:05.741Z,14.40
2019-03-30T14:04:34.346Z,14.40
2019-03-30T14:07:03.028Z,14.50
2019-03-30T14:09:31.650Z,14.60
2019-03-30T14:12:00.282Z,14.60
2019-03-30T14:14:28.958Z,14.80
2019-03-30T14:16:57.582Z,14.90
2019-03-30T14:19:26.298Z,14.70
2019-03-30T14:21:55.081Z,14.50
2019-03-30T14:24:23.720Z,14.40
2019-03-30T14:26:52.528Z,14.70
2019-03-30T14:29:21.208Z,14.70
2019-03-30T14:31:49.815Z,14.40
2019-03-30T14:34:18.381Z,14.10
2019-03-30T14:36:47.002Z,14.50
2019-03-30T14:39:15.696Z,14.30
2019-03-30T14:41:44.289Z,14.30
2019-03-30T14:44:12.934Z,14.10
2019-03-30T14:46:41.656Z,14.20
2019-03-30T14:49:10.340Z,14.00
2019-03-30T14:51:38.976Z,14.10
2019-03-30T14:54:07.580Z,14.00
2019-03-30T14:56:45.595Z,14.10
2019-03-30T14:59:10.356Z,13.90
2019-03-30T15:01:36.798Z,13.80
2019-03-30T15:04:05.601Z,13.80
2019-03-30T15:06:34.188Z,13.80
2019-03-30T15:09:04.503Z,13.80
2019-03-30T15:11:33.087Z,13.60
2019-03-30T15:14:01.681Z,13.60
2019-03-30T15:16:30.362Z,13.50
2019-03-30T15:18:58.957Z,13.30
2019-03-30T15:21:27.549Z,13.50
2019-03-30T15:23:56.234Z,13.30
2019-03-30T15:26:24.986Z,13.30
2019-03-30T15:28:53.567Z,13.50
2019-03-30T15:31:22.221Z,13.30
2019-03-30T15:33:53.350Z,13.30
2019-03-30T15:36:21.249Z,13.20
2019-03-30T15:38:49.990Z,13.10
2019-03-30T15:41:18.643Z,13.20
2019-03-30T15:43:47.294Z,13.00
2019-03-30T15:46:15.927Z,13.00
2019-03-30T15:48:44.603Z,12.90
2019-03-30T15:51:13.243Z,12.70
2019-03-30T15:53:41.859Z,12.80
2019-03-30T15:56:10.569Z,12.80
2019-03-30T15:58:39.253Z,12.90
2019-03-30T16:01:07.881Z,12.80
2019-03-30T16:03:36.522Z,12.50
2019-03-30T16:06:05.216Z,12.50
2019-03-30T16:08:33.805Z,12.50
2019-03-30T16:11:02.464Z,12.50
2019-03-30T16:13:31.290Z,12.40
2019-03-30T16:15:59.888Z,12.30
2019-03-30T16:18:28.586Z,12.20
2019-03-30T16:20:57.186Z,12.00
2019-03-30T16:23:25.946Z,12.10
2019-03-30T16:25:54.704Z,11.90
2019-03-30T16:28:23.378Z,11.80
2019-03-30T16:30:52.083Z,11.80
2019-03-30T16:33:20.654Z,11.70
2019-03-30T16:35:49.331Z,11.70
2019-03-30T16:38:18.004Z,11.70
2019-03-30T16:40:46.711Z,11.50
2019-03-30T16:43:15.317Z,11.40
2019-03-30T16:45:43.912Z,11.30
2019-03-30T16:48:14.753Z,11.20
2019-03-30T16:50:42.935Z,11.30
2019-03-30T16:53:11.527Z,11.10
2019-03-30T16:55:40.274Z,11.10
2019-03-30T16:58:08.868Z,11.00
2019-03-30T17:00:37.526Z,10.90
2019-03-30T17:03:06.316Z,10.80
2019-03-30T17:05:35.019Z,10.80
2019-03-30T17:08:03.717Z,10.70
2019-03-30T17:10:32.526Z,10.60
2019-03-30T17:13:01.136Z,10.60
2019-03-30T17:15:29.779Z,10.50
2019-03-30T17:17:58.396Z,10.50
2019-03-30T17:20:26.992Z,10.40
2019-03-30T17:22:58.660Z,10.30
2019-03-30T17:25:26.033Z,10.20
2019-03-30T17:27:58.423Z,10.10
2019-03-30T17:30:25.033Z,10.10
2019-03-30T17:32:53.822Z,10.00
2019-03-30T17:35:22.579Z,10.00
2019-03-30T17:37:51.195Z,9.90
2019-03-30T17:40:19.814Z,9.90
2019-03-30T17:42:48.473Z,9.90
2019-03-30T17:45:17.214Z,9.80
2019-03-30T17:47:45.882Z,9.80
2019-03-30T17:50:14.922Z,9.70
2019-03-30T17:52:43.593Z,9.70
2019-03-30T17:55:13.718Z,9.60
2019-03-30T17:57:42.493Z,9.50
2019-03-30T18:00:13.950Z,9.50
2019-03-30T18:02:42.526Z,9.30
2019-03-30T18:05:11.359Z,9.30
2019-03-30T18:07:40.076Z,9.30
2019-03-30T18:10:10.009Z,9.20
2019-03-30T18:12:38.680Z,9.10
2019-03-30T18:15:08.248Z,9.10
2019-03-30T18:17:36.857Z,9.10
2019-03-30T18:20:06.670Z,9.00
2019-03-30T18:22:35.438Z,9.00
2019-03-30T18:25:05.694Z,8.90
2019-03-30T18:27:34.342Z,8.80
2019-03-30T18:30:03.079Z,8.80
2019-03-30T18:32:32.174Z,8.70
2019-03-30T18:35:00.948Z,8.70
2019-03-30T18:37:30.093Z,8.60
2019-03-30T18:39:59.235Z,8.60
2019-03-30T18:42:28.798Z,8.50
2019-03-30T18:44:58.117Z,8.50
2019-03-30T18:47:26.751Z,8.40
2019-03-30T18:49:55.354Z,8.40
2019-03-30T18:52:24.790Z,8.30
2019-03-30T18:54:54.149Z,8.30
2019-03-30T18:57:22.894Z,8.30
2019-03-30T18:59:51.495Z,8.30
2019-03-30T19:02:20.172Z,8.20
2019-03-30T19:04:48.677Z,8.10
2019-03-30T19:07:17.279Z,8.10
2019-03-30T19:09:45.920Z,8.00
2019-03-30T19:12:14.544Z,8.00
2019-03-30T19:14:43.130Z,7.90
2019-03-30T19:17:11.779Z,7.90
2019-03-30T19:19:40.417Z,7.90
2019-03-30T19:22:09.060Z,7.80
2019-03-30T19:24:37.743Z,7.80
2019-03-30T19:27:06.429Z,7.70
2019-03-30T19:29:35.011Z,7.70
2019-03-30T19:32:03.634Z,7.60
2019-03-30T19:34:32.218Z,7.60
2019-03-30T19:37:00.818Z,7.50
2019-03-30T19:39:29.525Z,7.50
2019-03-30T19:41:58.146Z,7.40
2019-03-30T19:44:26.730Z,7.40
2019-03-30T19:46:55.410Z,7.40
2019-03-30T19:49:23.964Z,7.40
2019-03-30T19:51:52.566Z,7.30
2019-03-30T19:54:21.219Z,7.30
2019-03-30T19:56:49.845Z,7.20
2019-03-30T19:59:18.440Z,7.20
2019-03-30T20:01:47.042Z,7.20
2019-03-30T20:04:15.602Z,7.20
2019-03-30T20:06:44.265Z,7.20
2019-03-30T20:09:12.936Z,7.20
2019-03-30T20:11:41.513Z,7.10
2019-03-30T20:14:10.131Z,7.10
2019-03-30T20:16:42.098Z,7.10
2019-03-30T20:19:12.473Z,7.10
2019-03-30T20:21:39.231Z,7.00
2019-03-30T20:24:07.946Z,7.00
2019-03-30T20:26:36.550Z,7.00
2019-03-30T20:29:05.408Z,7.00
2019-03-30T20:31:33.999Z,6.90
2019-03-30T20:34:02.665Z,6.90
2019-03-30T20:36:31.303Z,6.90
2019-03-30T20:39:00.021Z,6.80
2019-03-30T20:41:28.613Z,6.80
2019-03-30T20:43:57.519Z,6.80
2019-03-30T20:46:26.220Z,6.70
2019-03-30T20:48:54.815Z,6.70
2019-03-30T20:51:23.418Z,6.70
2019-03-30T20:53:52.077Z,6.70
2019-03-30T20:56:20.645Z,6.70
2019-03-30T20:58:49.330Z,6.60
2019-03-30T21:01:18.040Z,6.60
2019-03-30T21:03:46.701Z,6.60
2019-03-30T21:06:15.360Z,6.60
2019-03-30T21:08:43.961Z,6.50
2019-03-30T21:11:12.569Z,6.50
2019-03-30T21:13:41.160Z,6.50
2019-03-30T21:16:09.858Z,6.50
2019-03-30T21:18:38.447Z,6.50
2019-03-30T21:21:09.128Z,6.50
2019-03-30T21:23:37.445Z,6.50
2019-03-30T21:26:06.157Z,6.50
2019-03-30T21:28:34.777Z,6.50
2019-03-30T21:31:03.394Z,6.50
2019-03-30T21:33:31.918Z,6.40
2019-03-30T21:36:00.582Z,6.40
2019-03-30T21:38:29.209Z,6.40
2019-03-30T21:40:57.787Z,6.30
2019-03-30T21:43:26.379Z,6.30
2019-03-30T21:45:54.945Z,6.30
2019-03-30T21:48:23.522Z,6.40
2019-03-30T21:50:52.120Z,6.30
2019-03-30T21:53:20.722Z,6.30
2019-03-30T21:55:49.345Z,6.30
2019-03-30T21:58:17.961Z,6.20
2019-03-30T22:00:46.683Z,6.20
2019-03-30T22:03:15.334Z,6.20
2019-03-30T22:05:43.894Z,6.10
2019-03-30T22:08:12.647Z,6.10
2019-03-30T22:10:41.268Z,6.10
2019-03-30T22:13:09.906Z,6.10
2019-03-30T22:15:38.631Z,6.10
2019-03-30T22:18:07.198Z,6.10
2019-03-30T22:20:35.876Z,6.10
2019-03-30T22:23:04.523Z,6.00
2019-03-30T22:25:33.121Z,6.00
2019-03-30T22:28:01.724Z,6.00
2019-03-30T22:30:30.413Z,6.00
2019-03-30T22:32:59.130Z,6.00
2019-03-30T22:35:27.697Z,5.90
2019-03-30T22:37:56.331Z,5.90
2019-03-30T22:40:24.940Z,5.90
2019-03-30T22:42:53.574Z,6.00
2019-03-30T22:45:22.221Z,5.90
2019-03-30T22:47:50.850Z,5.90
2019-03-30T22:50:19.590Z,5.90
2019-03-30T22:52:48.310Z,5.90
2019-03-30T22:55:16.971Z,5.80
2019-03-30T22:57:45.610Z,5.80
2019-03-30T23:00:38.611Z,5.90
2019-03-30T23:02:58.739Z,5.80
2019-03-30T23:05:27.378Z,5.80
2019-03-30T23:07:55.975Z,5.80
2019-03-30T23:10:24.535Z,5.80
2019-03-30T23:12:53.180Z,5.70
2019-03-30T23:15:21.785Z,5.70
2019-03-30T23:17:50.395Z,5.80
2019-03-30T23:20:18.993Z,5.70
2019-03-30T23:22:47.553Z,5.80
2019-03-30T23:25:16.259Z,5.70
2019-03-30T23:27:44.918Z,5.70
2019-03-30T23:30:15.117Z,5.60
2019-03-30T23:32:43.730Z,5.60
2019-03-30T23:35:14.174Z,5.60
2019-03-30T23:37:42.770Z,5.60
2019-03-30T23:40:11.551Z,5.60
2019-03-30T23:42:40.188Z,5.50
2019-03-30T23:45:10.325Z,5.50
2019-03-30T23:47:39.027Z,5.50
2019-03-30T23:50:07.964Z,5.50
2019-03-30T23:52:36.645Z,5.50
2019-03-30T23:55:06.573Z,5.50
2019-03-30T23:57:35.319Z,5.50
